sensor_id;sensor_type;location;lat;lon;timestamp;P1;durP1;ratioP1;P2;durP2;ratioP2
24157;SDS011;12316;50.904;4.200;2024-03-06T00:00:56;7.88;;;7.07;;
24157;SDS011;12316;50.904;4.200;2024-03-06T00:03:22;8.85;;;7.25;;
24157;SDS011;12316;50.904;4.200;2024-03-06T00:05:48;9.65;;;8.00;;
24157;SDS011;12316;50.904;4.200;2024-03-06T00:08:14;7.60;;;6.72;;
24157;SDS011;12316;50.904;4.200;2024-03-06T00:10:40;8.50;;;7.07;;
24157;SDS011;12316;50.904;4.200;2024-03-06T00:13:06;8.13;;;6.97;;
24157;SDS011;12316;50.904;4.200;2024-03-06T00:15:35;8.63;;;7.13;;
24157;SDS011;12316;50.904;4.200;2024-03-06T00:18:00;7.65;;;6.65;;
24157;SDS011;12316;50.904;4.200;2024-03-06T00:20:28;9.52;;;6.53;;
24157;SDS011;12316;50.904;4.200;2024-03-06T00:22:54;8.23;;;7.13;;
24157;SDS011;12316;50.904;4.200;2024-03-06T00:25:20;9.75;;;7.57;;
24157;SDS011;12316;50.904;4.200;2024-03-06T00:27:47;10.95;;;7.65;;
24157;SDS011;12316;50.904;4.200;2024-03-06T00:30:13;9.80;;;7.35;;
24157;SDS011;12316;50.904;4.200;2024-03-06T00:32:39;8.40;;;6.85;;
24157;SDS011;12316;50.904;4.200;2024-03-06T00:35:04;6.85;;;6.03;;
24157;SDS011;12316;50.904;4.200;2024-03-06T00:37:31;9.73;;;7.35;;
24157;SDS011;12316;50.904;4.200;2024-03-06T00:39:57;10.52;;;7.53;;
24157;SDS011;12316;50.904;4.200;2024-03-06T00:42:22;7.75;;;6.60;;
24157;SDS011;12316;50.904;4.200;2024-03-06T00:44:49;8.52;;;6.93;;
24157;SDS011;12316;50.904;4.200;2024-03-06T00:47:15;11.65;;;7.38;;
24157;SDS011;12316;50.904;4.200;2024-03-06T00:49:41;9.13;;;7.15;;
24157;SDS011;12316;50.904;4.200;2024-03-06T00:52:07;9.60;;;7.20;;
24157;SDS011;12316;50.904;4.200;2024-03-06T00:54:36;11.70;;;8.05;;
24157;SDS011;12316;50.904;4.200;2024-03-06T00:57:02;10.77;;;7.85;;
24157;SDS011;12316;50.904;4.200;2024-03-06T00:59:28;7.32;;;6.40;;
24157;SDS011;12316;50.904;4.200;2024-03-06T01:01:53;7.32;;;6.32;;
24157;SDS011;12316;50.904;4.200;2024-03-06T01:04:22;8.65;;;6.82;;
24157;SDS011;12316;50.904;4.200;2024-03-06T01:06:48;8.38;;;7.05;;
24157;SDS011;12316;50.904;4.200;2024-03-06T01:09:14;8.82;;;6.90;;
24157;SDS011;12316;50.904;4.200;2024-03-06T01:11:39;8.60;;;6.60;;
24157;SDS011;12316;50.904;4.200;2024-03-06T01:14:05;6.85;;;6.13;;
24157;SDS011;12316;50.904;4.200;2024-03-06T01:16:31;7.75;;;6.72;;
24157;SDS011;12316;50.904;4.200;2024-03-06T01:18:57;8.15;;;6.63;;
24157;SDS011;12316;50.904;4.200;2024-03-06T01:21:23;8.15;;;7.13;;
24157;SDS011;12316;50.904;4.200;2024-03-06T01:23:48;9.18;;;7.10;;
24157;SDS011;12316;50.904;4.200;2024-03-06T01:26:14;9.93;;;7.47;;
24157;SDS011;12316;50.904;4.200;2024-03-06T01:28:40;11.48;;;8.60;;
24157;SDS011;12316;50.904;4.200;2024-03-06T01:31:06;10.05;;;8.07;;
24157;SDS011;12316;50.904;4.200;2024-03-06T01:33:31;12.40;;;8.68;;
24157;SDS011;12316;50.904;4.200;2024-03-06T01:35:57;10.48;;;7.93;;
24157;SDS011;12316;50.904;4.200;2024-03-06T01:38:23;10.95;;;8.23;;
24157;SDS011;12316;50.904;4.200;2024-03-06T01:40:50;11.07;;;8.27;;
24157;SDS011;12316;50.904;4.200;2024-03-06T01:43:19;9.40;;;7.78;;
24157;SDS011;12316;50.904;4.200;2024-03-06T01:45:47;11.27;;;8.98;;
24157;SDS011;12316;50.904;4.200;2024-03-06T01:48:14;9.88;;;7.72;;
24157;SDS011;12316;50.904;4.200;2024-03-06T01:50:42;10.52;;;8.35;;
24157;SDS011;12316;50.904;4.200;2024-03-06T01:53:08;11.13;;;8.38;;
24157;SDS011;12316;50.904;4.200;2024-03-06T01:55:35;10.85;;;7.63;;
24157;SDS011;12316;50.904;4.200;2024-03-06T01:58:01;7.80;;;6.97;;
24157;SDS011;12316;50.904;4.200;2024-03-06T02:00:27;10.55;;;8.00;;
24157;SDS011;12316;50.904;4.200;2024-03-06T02:02:54;9.02;;;8.00;;
24157;SDS011;12316;50.904;4.200;2024-03-06T02:05:20;7.75;;;6.68;;
24157;SDS011;12316;50.904;4.200;2024-03-06T02:07:46;8.45;;;7.00;;
24157;SDS011;12316;50.904;4.200;2024-03-06T02:10:12;7.90;;;6.60;;
24157;SDS011;12316;50.904;4.200;2024-03-06T02:12:38;10.43;;;7.88;;
24157;SDS011;12316;50.904;4.200;2024-03-06T02:15:04;8.38;;;7.05;;
24157;SDS011;12316;50.904;4.200;2024-03-06T02:17:31;8.75;;;7.10;;
24157;SDS011;12316;50.904;4.200;2024-03-06T02:19:56;10.60;;;6.68;;
24157;SDS011;12316;50.904;4.200;2024-03-06T02:22:25;7.72;;;6.80;;
24157;SDS011;12316;50.904;4.200;2024-03-06T02:24:51;9.23;;;7.50;;
24157;SDS011;12316;50.904;4.200;2024-03-06T02:27:17;9.48;;;7.53;;
24157;SDS011;12316;50.904;4.200;2024-03-06T02:29:43;10.05;;;7.53;;
24157;SDS011;12316;50.904;4.200;2024-03-06T02:32:11;10.32;;;7.40;;
24157;SDS011;12316;50.904;4.200;2024-03-06T02:34:40;9.30;;;7.63;;
24157;SDS011;12316;50.904;4.200;2024-03-06T02:37:06;9.00;;;7.47;;
24157;SDS011;12316;50.904;4.200;2024-03-06T02:39:31;8.80;;;6.80;;
24157;SDS011;12316;50.904;4.200;2024-03-06T02:41:57;10.00;;;7.60;;
24157;SDS011;12316;50.904;4.200;2024-03-06T02:44:23;9.50;;;6.85;;
24157;SDS011;12316;50.904;4.200;2024-03-06T02:46:49;8.75;;;6.90;;
24157;SDS011;12316;50.904;4.200;2024-03-06T02:49:15;10.48;;;7.50;;
24157;SDS011;12316;50.904;4.200;2024-03-06T02:51:43;8.52;;;7.38;;
24157;SDS011;12316;50.904;4.200;2024-03-06T02:54:09;9.88;;;7.72;;
24157;SDS011;12316;50.904;4.200;2024-03-06T02:56:35;9.55;;;8.45;;
24157;SDS011;12316;50.904;4.200;2024-03-06T02:59:01;9.52;;;7.57;;
24157;SDS011;12316;50.904;4.200;2024-03-06T03:01:28;7.35;;;6.50;;
24157;SDS011;12316;50.904;4.200;2024-03-06T03:03:55;9.20;;;7.75;;
24157;SDS011;12316;50.904;4.200;2024-03-06T03:06:21;8.05;;;7.10;;
24157;SDS011;12316;50.904;4.200;2024-03-06T03:08:49;7.93;;;6.82;;
24157;SDS011;12316;50.904;4.200;2024-03-06T03:11:15;8.18;;;6.90;;
24157;SDS011;12316;50.904;4.200;2024-03-06T03:13:41;10.23;;;7.90;;
24157;SDS011;12316;50.904;4.200;2024-03-06T03:16:07;8.18;;;7.22;;
24157;SDS011;12316;50.904;4.200;2024-03-06T03:18:42;7.53;;;6.53;;
24157;SDS011;12316;50.904;4.200;2024-03-06T03:21:09;9.18;;;7.28;;
24157;SDS011;12316;50.904;4.200;2024-03-06T03:23:37;8.18;;;6.72;;
24157;SDS011;12316;50.904;4.200;2024-03-06T03:26:04;11.65;;;9.32;;
24157;SDS011;12316;50.904;4.200;2024-03-06T03:28:30;10.90;;;9.30;;
24157;SDS011;12316;50.904;4.200;2024-03-06T03:30:57;10.02;;;7.97;;
24157;SDS011;12316;50.904;4.200;2024-03-06T03:33:23;11.40;;;8.40;;
24157;SDS011;12316;50.904;4.200;2024-03-06T03:35:49;10.73;;;8.60;;
24157;SDS011;12316;50.904;4.200;2024-03-06T03:38:16;9.73;;;8.38;;
24157;SDS011;12316;50.904;4.200;2024-03-06T03:40:42;10.75;;;7.82;;
24157;SDS011;12316;50.904;4.200;2024-03-06T03:43:08;9.95;;;7.90;;
24157;SDS011;12316;50.904;4.200;2024-03-06T03:45:34;11.25;;;8.40;;
24157;SDS011;12316;50.904;4.200;2024-03-06T03:48:01;9.00;;;7.53;;
24157;SDS011;12316;50.904;4.200;2024-03-06T03:50:30;10.43;;;8.32;;
24157;SDS011;12316;50.904;4.200;2024-03-06T03:52:56;9.43;;;7.80;;
24157;SDS011;12316;50.904;4.200;2024-03-06T03:55:26;11.27;;;8.85;;
24157;SDS011;12316;50.904;4.200;2024-03-06T03:57:52;10.80;;;8.27;;
24157;SDS011;12316;50.904;4.200;2024-03-06T04:00:18;9.32;;;7.60;;
24157;SDS011;12316;50.904;4.200;2024-03-06T04:02:44;9.95;;;8.25;;
24157;SDS011;12316;50.904;4.200;2024-03-06T04:05:10;10.38;;;8.63;;
24157;SDS011;12316;50.904;4.200;2024-03-06T04:07:37;10.48;;;8.43;;
24157;SDS011;12316;50.904;4.200;2024-03-06T04:10:03;8.50;;;7.53;;
24157;SDS011;12316;50.904;4.200;2024-03-06T04:12:29;10.98;;;9.10;;
24157;SDS011;12316;50.904;4.200;2024-03-06T04:14:56;10.38;;;8.60;;
24157;SDS011;12316;50.904;4.200;2024-03-06T04:17:22;13.55;;;11.18;;
24157;SDS011;12316;50.904;4.200;2024-03-06T04:19:50;11.68;;;9.18;;
24157;SDS011;12316;50.904;4.200;2024-03-06T04:22:18;10.07;;;8.10;;
24157;SDS011;12316;50.904;4.200;2024-03-06T04:24:44;11.23;;;8.70;;
24157;SDS011;12316;50.904;4.200;2024-03-06T04:27:10;12.25;;;9.65;;
24157;SDS011;12316;50.904;4.200;2024-03-06T04:29:37;13.75;;;11.02;;
24157;SDS011;12316;50.904;4.200;2024-03-06T04:32:03;11.45;;;8.45;;
24157;SDS011;12316;50.904;4.200;2024-03-06T04:34:29;11.68;;;9.05;;
24157;SDS011;12316;50.904;4.200;2024-03-06T04:36:54;13.40;;;10.50;;
24157;SDS011;12316;50.904;4.200;2024-03-06T04:39:21;13.07;;;9.88;;
24157;SDS011;12316;50.904;4.200;2024-03-06T04:41:47;15.27;;;9.80;;
24157;SDS011;12316;50.904;4.200;2024-03-06T04:44:13;12.20;;;9.85;;
24157;SDS011;12316;50.904;4.200;2024-03-06T04:46:39;12.80;;;10.65;;
24157;SDS011;12316;50.904;4.200;2024-03-06T04:49:04;17.08;;;12.40;;
24157;SDS011;12316;50.904;4.200;2024-03-06T04:51:30;16.33;;;12.63;;
24157;SDS011;12316;50.904;4.200;2024-03-06T04:53:57;19.13;;;13.35;;
24157;SDS011;12316;50.904;4.200;2024-03-06T04:56:23;16.77;;;13.13;;
24157;SDS011;12316;50.904;4.200;2024-03-06T04:58:48;15.23;;;11.70;;
24157;SDS011;12316;50.904;4.200;2024-03-06T05:01:14;13.95;;;11.40;;
24157;SDS011;12316;50.904;4.200;2024-03-06T05:03:40;15.48;;;11.32;;
24157;SDS011;12316;50.904;4.200;2024-03-06T05:06:05;13.77;;;9.77;;
24157;SDS011;12316;50.904;4.200;2024-03-06T05:08:31;13.90;;;9.80;;
24157;SDS011;12316;50.904;4.200;2024-03-06T05:10:59;12.90;;;10.63;;
24157;SDS011;12316;50.904;4.200;2024-03-06T05:13:26;14.98;;;10.85;;
24157;SDS011;12316;50.904;4.200;2024-03-06T05:15:52;14.65;;;10.88;;
24157;SDS011;12316;50.904;4.200;2024-03-06T05:18:19;14.20;;;11.13;;
24157;SDS011;12316;50.904;4.200;2024-03-06T05:20:45;14.75;;;11.15;;
24157;SDS011;12316;50.904;4.200;2024-03-06T05:23:11;15.85;;;11.95;;
24157;SDS011;12316;50.904;4.200;2024-03-06T05:25:37;16.20;;;12.32;;
24157;SDS011;12316;50.904;4.200;2024-03-06T05:28:04;16.80;;;12.85;;
24157;SDS011;12316;50.904;4.200;2024-03-06T05:30:30;19.70;;;13.82;;
24157;SDS011;12316;50.904;4.200;2024-03-06T05:32:57;16.40;;;12.68;;
24157;SDS011;12316;50.904;4.200;2024-03-06T05:35:23;19.65;;;14.10;;
24157;SDS011;12316;50.904;4.200;2024-03-06T05:37:48;18.65;;;14.35;;
24157;SDS011;12316;50.904;4.200;2024-03-06T05:40:14;17.55;;;13.85;;
24157;SDS011;12316;50.904;4.200;2024-03-06T05:42:40;20.38;;;14.02;;
24157;SDS011;12316;50.904;4.200;2024-03-06T05:45:07;19.20;;;14.40;;
24157;SDS011;12316;50.904;4.200;2024-03-06T05:47:36;17.67;;;13.27;;
24157;SDS011;12316;50.904;4.200;2024-03-06T05:50:03;16.25;;;11.60;;
24157;SDS011;12316;50.904;4.200;2024-03-06T05:52:30;16.98;;;12.82;;
24157;SDS011;12316;50.904;4.200;2024-03-06T05:54:56;15.48;;;10.77;;
24157;SDS011;12316;50.904;4.200;2024-03-06T05:57:22;14.38;;;10.73;;
24157;SDS011;12316;50.904;4.200;2024-03-06T05:59:49;13.40;;;10.15;;
24157;SDS011;12316;50.904;4.200;2024-03-06T06:02:15;14.82;;;12.18;;
24157;SDS011;12316;50.904;4.200;2024-03-06T06:04:41;16.85;;;12.10;;
24157;SDS011;12316;50.904;4.200;2024-03-06T06:07:07;12.15;;;9.50;;
24157;SDS011;12316;50.904;4.200;2024-03-06T06:09:34;14.00;;;10.93;;
24157;SDS011;12316;50.904;4.200;2024-03-06T06:12:00;15.98;;;11.65;;
24157;SDS011;12316;50.904;4.200;2024-03-06T06:14:25;13.55;;;10.65;;
24157;SDS011;12316;50.904;4.200;2024-03-06T06:16:54;14.80;;;11.20;;
24157;SDS011;12316;50.904;4.200;2024-03-06T06:19:21;13.00;;;10.20;;
24157;SDS011;12316;50.904;4.200;2024-03-06T06:21:47;14.00;;;10.73;;
24157;SDS011;12316;50.904;4.200;2024-03-06T06:24:13;16.88;;;11.60;;
24157;SDS011;12316;50.904;4.200;2024-03-06T06:26:39;15.95;;;12.18;;
24157;SDS011;12316;50.904;4.200;2024-03-06T06:29:05;18.67;;;11.88;;
24157;SDS011;12316;50.904;4.200;2024-03-06T06:31:32;14.05;;;10.57;;
24157;SDS011;12316;50.904;4.200;2024-03-06T06:33:57;13.48;;;9.98;;
24157;SDS011;12316;50.904;4.200;2024-03-06T06:36:23;16.27;;;12.20;;
24157;SDS011;12316;50.904;4.200;2024-03-06T06:38:49;16.70;;;12.50;;
24157;SDS011;12316;50.904;4.200;2024-03-06T06:41:15;13.93;;;10.77;;
24157;SDS011;12316;50.904;4.200;2024-03-06T06:43:43;18.25;;;12.50;;
24157;SDS011;12316;50.904;4.200;2024-03-06T06:46:09;14.15;;;10.75;;
24157;SDS011;12316;50.904;4.200;2024-03-06T06:48:34;16.88;;;11.88;;
24157;SDS011;12316;50.904;4.200;2024-03-06T06:51:00;16.13;;;11.57;;
24157;SDS011;12316;50.904;4.200;2024-03-06T06:53:27;15.05;;;11.73;;
24157;SDS011;12316;50.904;4.200;2024-03-06T06:55:55;15.00;;;11.27;;
24157;SDS011;12316;50.904;4.200;2024-03-06T06:58:22;14.63;;;10.25;;
24157;SDS011;12316;50.904;4.200;2024-03-06T07:00:48;15.05;;;10.20;;
24157;SDS011;12316;50.904;4.200;2024-03-06T07:03:14;12.30;;;9.73;;
24157;SDS011;12316;50.904;4.200;2024-03-06T07:05:39;14.00;;;10.85;;
24157;SDS011;12316;50.904;4.200;2024-03-06T07:08:07;13.27;;;10.13;;
24157;SDS011;12316;50.904;4.200;2024-03-06T07:10:33;14.90;;;10.68;;
24157;SDS011;12316;50.904;4.200;2024-03-06T07:13:01;13.30;;;10.60;;
24157;SDS011;12316;50.904;4.200;2024-03-06T07:15:28;16.23;;;11.55;;
24157;SDS011;12316;50.904;4.200;2024-03-06T07:17:54;15.55;;;12.30;;
24157;SDS011;12316;50.904;4.200;2024-03-06T07:20:20;16.90;;;13.15;;
24157;SDS011;12316;50.904;4.200;2024-03-06T07:22:46;16.35;;;12.18;;
24157;SDS011;12316;50.904;4.200;2024-03-06T07:25:11;15.45;;;11.05;;
24157;SDS011;12316;50.904;4.200;2024-03-06T07:27:37;15.73;;;10.70;;
24157;SDS011;12316;50.904;4.200;2024-03-06T07:30:03;13.80;;;11.60;;
24157;SDS011;12316;50.904;4.200;2024-03-06T07:32:30;16.23;;;12.35;;
24157;SDS011;12316;50.904;4.200;2024-03-06T07:34:56;13.60;;;10.57;;
24157;SDS011;12316;50.904;4.200;2024-03-06T07:37:23;14.27;;;11.25;;
24157;SDS011;12316;50.904;4.200;2024-03-06T07:39:49;13.63;;;10.18;;
24157;SDS011;12316;50.904;4.200;2024-03-06T07:42:15;15.70;;;11.85;;
24157;SDS011;12316;50.904;4.200;2024-03-06T07:44:42;15.52;;;12.45;;
24157;SDS011;12316;50.904;4.200;2024-03-06T07:47:08;16.23;;;12.60;;
24157;SDS011;12316;50.904;4.200;2024-03-06T07:49:34;17.92;;;12.65;;
24157;SDS011;12316;50.904;4.200;2024-03-06T07:52:00;16.05;;;12.25;;
24157;SDS011;12316;50.904;4.200;2024-03-06T07:54:26;17.00;;;12.73;;
24157;SDS011;12316;50.904;4.200;2024-03-06T07:56:51;18.45;;;12.93;;
24157;SDS011;12316;50.904;4.200;2024-03-06T07:59:19;17.95;;;12.50;;
24157;SDS011;12316;50.904;4.200;2024-03-06T08:01:45;17.60;;;12.50;;
24157;SDS011;12316;50.904;4.200;2024-03-06T08:04:11;20.35;;;12.85;;
24157;SDS011;12316;50.904;4.200;2024-03-06T08:06:38;18.45;;;13.32;;
24157;SDS011;12316;50.904;4.200;2024-03-06T08:09:04;17.85;;;12.73;;
24157;SDS011;12316;50.904;4.200;2024-03-06T08:11:31;19.35;;;12.68;;
24157;SDS011;12316;50.904;4.200;2024-03-06T08:13:58;17.15;;;12.32;;
24157;SDS011;12316;50.904;4.200;2024-03-06T08:16:25;16.58;;;11.85;;
24157;SDS011;12316;50.904;4.200;2024-03-06T08:18:51;16.60;;;12.25;;
24157;SDS011;12316;50.904;4.200;2024-03-06T08:21:16;16.77;;;12.20;;
24157;SDS011;12316;50.904;4.200;2024-03-06T08:23:42;15.38;;;12.00;;
24157;SDS011;12316;50.904;4.200;2024-03-06T08:26:10;15.00;;;10.98;;
24157;SDS011;12316;50.904;4.200;2024-03-06T08:28:35;16.58;;;12.63;;
24157;SDS011;12316;50.904;4.200;2024-03-06T08:31:01;18.33;;;12.27;;
24157;SDS011;12316;50.904;4.200;2024-03-06T08:33:27;17.40;;;11.85;;
24157;SDS011;12316;50.904;4.200;2024-03-06T08:35:53;13.30;;;11.38;;
24157;SDS011;12316;50.904;4.200;2024-03-06T08:38:18;14.13;;;11.10;;
24157;SDS011;12316;50.904;4.200;2024-03-06T08:40:45;14.25;;;11.40;;
24157;SDS011;12316;50.904;4.200;2024-03-06T08:43:13;13.70;;;11.32;;
24157;SDS011;12316;50.904;4.200;2024-03-06T08:45:40;14.82;;;10.65;;
24157;SDS011;12316;50.904;4.200;2024-03-06T08:48:07;14.20;;;10.93;;
24157;SDS011;12316;50.904;4.200;2024-03-06T08:50:33;13.43;;;10.85;;
24157;SDS011;12316;50.904;4.200;2024-03-06T08:52:58;13.07;;;10.82;;
24157;SDS011;12316;50.904;4.200;2024-03-06T08:55:24;14.35;;;11.07;;
24157;SDS011;12316;50.904;4.200;2024-03-06T08:57:50;14.35;;;10.38;;
24157;SDS011;12316;50.904;4.200;2024-03-06T09:00:17;17.48;;;10.80;;
24157;SDS011;12316;50.904;4.200;2024-03-06T09:02:44;13.63;;;10.70;;
24157;SDS011;12316;50.904;4.200;2024-03-06T09:05:10;13.63;;;10.32;;
24157;SDS011;12316;50.904;4.200;2024-03-06T09:07:38;12.77;;;9.52;;
24157;SDS011;12316;50.904;4.200;2024-03-06T09:10:09;14.20;;;9.68;;
24157;SDS011;12316;50.904;4.200;2024-03-06T09:12:35;13.23;;;10.05;;
24157;SDS011;12316;50.904;4.200;2024-03-06T09:15:02;13.10;;;9.82;;
24157;SDS011;12316;50.904;4.200;2024-03-06T09:17:28;12.68;;;10.10;;
24157;SDS011;12316;50.904;4.200;2024-03-06T09:19:54;12.70;;;9.48;;
24157;SDS011;12316;50.904;4.200;2024-03-06T09:22:20;11.52;;;9.13;;
24157;SDS011;12316;50.904;4.200;2024-03-06T09:24:46;11.32;;;9.23;;
24157;SDS011;12316;50.904;4.200;2024-03-06T09:27:13;11.80;;;9.30;;
24157;SDS011;12316;50.904;4.200;2024-03-06T09:29:42;13.75;;;9.45;;
24157;SDS011;12316;50.904;4.200;2024-03-06T09:32:09;13.02;;;9.50;;
24157;SDS011;12316;50.904;4.200;2024-03-06T09:34:35;10.68;;;9.20;;
24157;SDS011;12316;50.904;4.200;2024-03-06T09:37:01;11.23;;;9.20;;
24157;SDS011;12316;50.904;4.200;2024-03-06T09:39:28;10.82;;;8.60;;
24157;SDS011;12316;50.904;4.200;2024-03-06T09:41:54;10.35;;;8.60;;
24157;SDS011;12316;50.904;4.200;2024-03-06T09:44:21;10.65;;;8.85;;
24157;SDS011;12316;50.904;4.200;2024-03-06T09:46:48;11.07;;;8.55;;
24157;SDS011;12316;50.904;4.200;2024-03-06T09:49:15;11.80;;;8.52;;
24157;SDS011;12316;50.904;4.200;2024-03-06T09:51:45;13.48;;;8.88;;
24157;SDS011;12316;50.904;4.200;2024-03-06T09:54:18;12.65;;;8.45;;
24157;SDS011;12316;50.904;4.200;2024-03-06T09:56:45;12.73;;;8.82;;
24157;SDS011;12316;50.904;4.200;2024-03-06T09:59:12;11.32;;;9.02;;
24157;SDS011;12316;50.904;4.200;2024-03-06T10:01:54;13.98;;;8.23;;
24157;SDS011;12316;50.904;4.200;2024-03-06T10:06:59;11.73;;;8.38;;
24157;SDS011;12316;50.904;4.200;2024-03-06T10:09:27;10.27;;;8.40;;
24157;SDS011;12316;50.904;4.200;2024-03-06T10:11:55;10.27;;;7.57;;
24157;SDS011;12316;50.904;4.200;2024-03-06T10:14:22;10.60;;;7.80;;
24157;SDS011;12316;50.904;4.200;2024-03-06T10:16:54;9.02;;;7.80;;
24157;SDS011;12316;50.904;4.200;2024-03-06T10:19:24;9.88;;;7.82;;
24157;SDS011;12316;50.904;4.200;2024-03-06T10:21:54;11.15;;;7.90;;
24157;SDS011;12316;50.904;4.200;2024-03-06T10:24:23;10.80;;;7.47;;
24157;SDS011;12316;50.904;4.200;2024-03-06T10:26:51;9.32;;;7.65;;
24157;SDS011;12316;50.904;4.200;2024-03-06T10:29:20;8.40;;;7.07;;
24157;SDS011;12316;50.904;4.200;2024-03-06T10:31:56;9.32;;;7.55;;
24157;SDS011;12316;50.904;4.200;2024-03-06T10:34:26;9.55;;;7.80;;
24157;SDS011;12316;50.904;4.200;2024-03-06T10:36:57;8.70;;;7.25;;
24157;SDS011;12316;50.904;4.200;2024-03-06T10:39:24;12.30;;;7.47;;
24157;SDS011;12316;50.904;4.200;2024-03-06T10:41:56;9.68;;;7.50;;
24157;SDS011;12316;50.904;4.200;2024-03-06T10:44:23;8.98;;;7.32;;
24157;SDS011;12316;50.904;4.200;2024-03-06T10:47:03;7.90;;;7.10;;
24157;SDS011;12316;50.904;4.200;2024-03-06T10:49:30;11.27;;;7.70;;
24157;SDS011;12316;50.904;4.200;2024-03-06T10:52:04;9.30;;;7.25;;
24157;SDS011;12316;50.904;4.200;2024-03-06T10:54:33;10.05;;;6.97;;
24157;SDS011;12316;50.904;4.200;2024-03-06T10:57:01;9.82;;;7.00;;
24157;SDS011;12316;50.904;4.200;2024-03-06T10:59:28;9.95;;;7.10;;
24157;SDS011;12316;50.904;4.200;2024-03-06T11:01:58;8.73;;;6.30;;
24157;SDS011;12316;50.904;4.200;2024-03-06T11:04:28;7.43;;;6.03;;
24157;SDS011;12316;50.904;4.200;2024-03-06T11:06:58;8.88;;;5.95;;
24157;SDS011;12316;50.904;4.200;2024-03-06T11:09:34;5.70;;;4.70;;
24157;SDS011;12316;50.904;4.200;2024-03-06T11:12:01;7.70;;;5.15;;
24157;SDS011;12316;50.904;4.200;2024-03-06T11:14:30;6.53;;;5.00;;
24157;SDS011;12316;50.904;4.200;2024-03-06T11:19:26;6.60;;;4.55;;
24157;SDS011;12316;50.904;4.200;2024-03-06T11:21:52;3.72;;;2.47;;
24157;SDS011;12316;50.904;4.200;2024-03-06T11:24:18;3.97;;;3.50;;
24157;SDS011;12316;50.904;4.200;2024-03-06T11:26:46;5.22;;;3.60;;
24157;SDS011;12316;50.904;4.200;2024-03-06T11:29:17;4.13;;;3.60;;
24157;SDS011;12316;50.904;4.200;2024-03-06T11:34:42;4.43;;;3.47;;
24157;SDS011;12316;50.904;4.200;2024-03-06T11:37:07;7.18;;;3.55;;
24157;SDS011;12316;50.904;4.200;2024-03-06T11:39:37;4.63;;;3.58;;
24157;SDS011;12316;50.904;4.200;2024-03-06T11:42:06;3.92;;;3.42;;
24157;SDS011;12316;50.904;4.200;2024-03-06T11:44:35;4.38;;;3.65;;
24157;SDS011;12316;50.904;4.200;2024-03-06T11:47:05;4.75;;;3.80;;
24157;SDS011;12316;50.904;4.200;2024-03-06T11:49:34;6.00;;;4.32;;
24157;SDS011;12316;50.904;4.200;2024-03-06T11:52:05;5.30;;;4.30;;
24157;SDS011;12316;50.904;4.200;2024-03-06T11:54:35;5.60;;;4.00;;
24157;SDS011;12316;50.904;4.200;2024-03-06T11:57:01;4.32;;;3.90;;
24157;SDS011;12316;50.904;4.200;2024-03-06T11:59:32;5.13;;;3.53;;
24157;SDS011;12316;50.904;4.200;2024-03-06T12:02:00;5.72;;;3.50;;
24157;SDS011;12316;50.904;4.200;2024-03-06T12:04:27;5.57;;;3.90;;
24157;SDS011;12316;50.904;4.200;2024-03-06T12:06:58;4.43;;;3.80;;
24157;SDS011;12316;50.904;4.200;2024-03-06T12:09:25;5.28;;;4.07;;
24157;SDS011;12316;50.904;4.200;2024-03-06T12:11:52;5.65;;;3.80;;
24157;SDS011;12316;50.904;4.200;2024-03-06T12:14:18;5.70;;;3.88;;
24157;SDS011;12316;50.904;4.200;2024-03-06T12:16:57;6.68;;;4.20;;
24157;SDS011;12316;50.904;4.200;2024-03-06T12:19:28;6.15;;;3.78;;
24157;SDS011;12316;50.904;4.200;2024-03-06T12:22:00;5.63;;;4.03;;
24157;SDS011;12316;50.904;4.200;2024-03-06T12:24:26;5.28;;;3.85;;
24157;SDS011;12316;50.904;4.200;2024-03-06T12:27:02;5.15;;;3.50;;
24157;SDS011;12316;50.904;4.200;2024-03-06T12:29:30;6.88;;;3.38;;
24157;SDS011;12316;50.904;4.200;2024-03-06T12:31:59;6.47;;;4.03;;
24157;SDS011;12316;50.904;4.200;2024-03-06T12:34:26;6.50;;;3.50;;
24157;SDS011;12316;50.904;4.200;2024-03-06T12:36:52;6.25;;;3.50;;
24157;SDS011;12316;50.904;4.200;2024-03-06T12:39:18;4.88;;;3.78;;
24157;SDS011;12316;50.904;4.200;2024-03-06T12:41:48;6.10;;;3.60;;
24157;SDS011;12316;50.904;4.200;2024-03-06T12:44:15;5.80;;;3.13;;
24157;SDS011;12316;50.904;4.200;2024-03-06T12:46:41;6.43;;;3.30;;
24157;SDS011;12316;50.904;4.200;2024-03-06T12:49:07;5.40;;;3.47;;
24157;SDS011;12316;50.904;4.200;2024-03-06T12:51:33;6.43;;;3.10;;
24157;SDS011;12316;50.904;4.200;2024-03-06T12:53:58;5.20;;;3.20;;
24157;SDS011;12316;50.904;4.200;2024-03-06T12:56:25;5.53;;;2.97;;
24157;SDS011;12316;50.904;4.200;2024-03-06T12:58:51;4.05;;;3.17;;
24157;SDS011;12316;50.904;4.200;2024-03-06T13:01:17;5.80;;;3.67;;
24157;SDS011;12316;50.904;4.200;2024-03-06T13:03:43;5.35;;;3.60;;
24157;SDS011;12316;50.904;4.200;2024-03-06T13:06:09;6.30;;;3.80;;
24157;SDS011;12316;50.904;4.200;2024-03-06T13:08:35;5.97;;;3.80;;
24157;SDS011;12316;50.904;4.200;2024-03-06T13:11:01;3.42;;;2.90;;
24157;SDS011;12316;50.904;4.200;2024-03-06T13:13:28;5.07;;;3.22;;
24157;SDS011;12316;50.904;4.200;2024-03-06T13:15:55;6.15;;;3.30;;
24157;SDS011;12316;50.904;4.200;2024-03-06T13:18:21;5.75;;;3.80;;
24157;SDS011;12316;50.904;4.200;2024-03-06T13:20:47;6.15;;;3.72;;
24157;SDS011;12316;50.904;4.200;2024-03-06T13:23:14;5.93;;;3.90;;
24157;SDS011;12316;50.904;4.200;2024-03-06T13:25:39;6.82;;;3.28;;
24157;SDS011;12316;50.904;4.200;2024-03-06T13:28:05;4.18;;;3.05;;
24157;SDS011;12316;50.904;4.200;2024-03-06T13:30:31;5.57;;;4.13;;
24157;SDS011;12316;50.904;4.200;2024-03-06T13:32:58;6.43;;;3.80;;
24157;SDS011;12316;50.904;4.200;2024-03-06T13:35:23;5.38;;;3.30;;
24157;SDS011;12316;50.904;4.200;2024-03-06T13:37:50;7.13;;;3.80;;
24157;SDS011;12316;50.904;4.200;2024-03-06T13:40:16;5.57;;;3.88;;
24157;SDS011;12316;50.904;4.200;2024-03-06T13:42:42;5.75;;;3.40;;
24157;SDS011;12316;50.904;4.200;2024-03-06T13:45:09;3.78;;;3.10;;
24157;SDS011;12316;50.904;4.200;2024-03-06T13:47:38;4.75;;;2.90;;
24157;SDS011;12316;50.904;4.200;2024-03-06T13:50:06;4.32;;;3.10;;
24157;SDS011;12316;50.904;4.200;2024-03-06T13:52:36;6.15;;;2.88;;
24157;SDS011;12316;50.904;4.200;2024-03-06T13:55:02;4.25;;;2.80;;
24157;SDS011;12316;50.904;4.200;2024-03-06T13:57:32;4.22;;;1.90;;
24157;SDS011;12316;50.904;4.200;2024-03-06T13:59:59;4.47;;;2.15;;
24157;SDS011;12316;50.904;4.200;2024-03-06T14:02:26;3.58;;;2.65;;
24157;SDS011;12316;50.904;4.200;2024-03-06T14:04:52;4.28;;;3.00;;
24157;SDS011;12316;50.904;4.200;2024-03-06T14:07:17;4.90;;;3.20;;
24157;SDS011;12316;50.904;4.200;2024-03-06T14:09:44;5.68;;;3.63;;
24157;SDS011;12316;50.904;4.200;2024-03-06T14:12:10;5.60;;;3.10;;
24157;SDS011;12316;50.904;4.200;2024-03-06T14:14:35;5.25;;;3.17;;
24157;SDS011;12316;50.904;4.200;2024-03-06T14:17:01;4.53;;;3.45;;
24157;SDS011;12316;50.904;4.200;2024-03-06T14:19:27;4.35;;;2.95;;
24157;SDS011;12316;50.904;4.200;2024-03-06T14:21:53;4.90;;;2.88;;
24157;SDS011;12316;50.904;4.200;2024-03-06T14:24:18;6.18;;;2.85;;
24157;SDS011;12316;50.904;4.200;2024-03-06T14:26:46;5.50;;;2.78;;
24157;SDS011;12316;50.904;4.200;2024-03-06T14:29:13;4.30;;;2.72;;
24157;SDS011;12316;50.904;4.200;2024-03-06T14:31:39;4.38;;;2.63;;
24157;SDS011;12316;50.904;4.200;2024-03-06T14:34:05;4.70;;;2.92;;
24157;SDS011;12316;50.904;4.200;2024-03-06T14:36:31;4.22;;;2.50;;
24157;SDS011;12316;50.904;4.200;2024-03-06T14:38:57;5.47;;;2.90;;
24157;SDS011;12316;50.904;4.200;2024-03-06T14:41:23;4.60;;;2.75;;